sensor_id;sensor_type;location;lat;lon;timestamp;P1;durP1;ratioP1;P2;durP2;ratioP2
64938;SDS011;51453;47.738;7.420;2023-08-21T00:01:18;9.43;;;6.45;;
64938;SDS011;51453;47.738;7.420;2023-08-21T00:03:44;8.50;;;6.40;;
64938;SDS011;51453;47.738;7.420;2023-08-21T00:06:10;8.77;;;5.97;;
64938;SDS011;51453;47.738;7.420;2023-08-21T00:08:35;8.27;;;6.20;;
64938;SDS011;51453;47.738;7.420;2023-08-21T00:11:01;7.30;;;6.50;;
64938;SDS011;51453;47.738;7.420;2023-08-21T00:13:27;7.80;;;6.07;;
64938;SDS011;51453;47.738;7.420;2023-08-21T00:15:52;10.50;;;6.78;;
64938;SDS011;51453;47.738;7.420;2023-08-21T00:18:20;8.40;;;6.95;;
64938;SDS011;51453;47.738;7.420;2023-08-21T00:20:46;9.40;;;6.30;;
64938;SDS011;51453;47.738;7.420;2023-08-21T00:23:12;10.05;;;6.55;;
64938;SDS011;51453;47.738;7.420;2023-08-21T00:25:37;9.00;;;6.05;;
64938;SDS011;51453;47.738;7.420;2023-08-21T00:28:03;7.32;;;6.43;;
64938;SDS011;51453;47.738;7.420;2023-08-21T00:30:29;10.75;;;6.63;;
64938;SDS011;51453;47.738;7.420;2023-08-21T00:32:55;7.80;;;6.50;;
64938;SDS011;51453;47.738;7.420;2023-08-21T00:35:20;8.27;;;6.78;;
64938;SDS011;51453;47.738;7.420;2023-08-21T00:37:46;10.48;;;7.05;;
64938;SDS011;51453;47.738;7.420;2023-08-21T00:40:12;7.32;;;6.43;;
64938;SDS011;51453;47.738;7.420;2023-08-21T00:42:38;8.52;;;6.50;;
64938;SDS011;51453;47.738;7.420;2023-08-21T00:45:03;9.27;;;6.70;;
64938;SDS011;51453;47.738;7.420;2023-08-21T00:47:29;8.52;;;6.43;;
64938;SDS011;51453;47.738;7.420;2023-08-21T00:49:55;7.30;;;6.60;;
64938;SDS011;51453;47.738;7.420;2023-08-21T00:52:21;9.57;;;7.28;;
64938;SDS011;51453;47.738;7.420;2023-08-21T00:54:47;10.82;;;7.47;;
64938;SDS011;51453;47.738;7.420;2023-08-21T00:57:13;9.68;;;6.55;;
64938;SDS011;51453;47.738;7.420;2023-08-21T00:59:39;8.05;;;7.25;;
64938;SDS011;51453;47.738;7.420;2023-08-21T01:02:05;9.05;;;7.10;;
64938;SDS011;51453;47.738;7.420;2023-08-21T01:04:31;9.27;;;7.13;;
64938;SDS011;51453;47.738;7.420;2023-08-21T01:06:57;9.38;;;7.20;;
64938;SDS011;51453;47.738;7.420;2023-08-21T01:11:58;8.35;;;7.40;;
64938;SDS011;51453;47.738;7.420;2023-08-21T01:17:02;8.25;;;7.47;;
64938;SDS011;51453;47.738;7.420;2023-08-21T01:21:55;13.23;;;7.55;;
64938;SDS011;51453;47.738;7.420;2023-08-21T01:24:21;10.00;;;7.78;;
64938;SDS011;51453;47.738;7.420;2023-08-21T01:26:47;12.70;;;8.02;;
64938;SDS011;51453;47.738;7.420;2023-08-21T01:29:12;11.00;;;8.52;;
64938;SDS011;51453;47.738;7.420;2023-08-21T01:31:38;10.68;;;7.88;;
64938;SDS011;51453;47.738;7.420;2023-08-21T01:34:08;9.73;;;7.88;;
64938;SDS011;51453;47.738;7.420;2023-08-21T01:36:36;8.88;;;7.78;;
64938;SDS011;51453;47.738;7.420;2023-08-21T01:39:02;13.23;;;8.40;;
64938;SDS011;51453;47.738;7.420;2023-08-21T01:41:28;9.30;;;8.05;;
64938;SDS011;51453;47.738;7.420;2023-08-21T01:43:54;12.38;;;8.27;;
64938;SDS011;51453;47.738;7.420;2023-08-21T01:46:19;8.93;;;8.02;;
64938;SDS011;51453;47.738;7.420;2023-08-21T01:48:47;10.55;;;8.27;;
64938;SDS011;51453;47.738;7.420;2023-08-21T01:51:13;9.85;;;8.13;;
64938;SDS011;51453;47.738;7.420;2023-08-21T01:53:39;9.93;;;8.02;;
64938;SDS011;51453;47.738;7.420;2023-08-21T01:56:04;10.38;;;8.20;;
64938;SDS011;51453;47.738;7.420;2023-08-21T01:58:30;10.30;;;8.48;;
64938;SDS011;51453;47.738;7.420;2023-08-21T02:00:55;11.68;;;8.75;;
64938;SDS011;51453;47.738;7.420;2023-08-21T02:03:21;9.57;;;8.25;;
64938;SDS011;51453;47.738;7.420;2023-08-21T02:05:49;9.52;;;8.40;;
64938;SDS011;51453;47.738;7.420;2023-08-21T02:08:16;11.27;;;7.85;;
64938;SDS011;51453;47.738;7.420;2023-08-21T02:10:51;10.75;;;7.50;;
64938;SDS011;51453;47.738;7.420;2023-08-21T02:13:18;8.70;;;7.50;;
64938;SDS011;51453;47.738;7.420;2023-08-21T02:15:44;10.07;;;7.68;;
64938;SDS011;51453;47.738;7.420;2023-08-21T02:18:09;8.43;;;7.20;;
64938;SDS011;51453;47.738;7.420;2023-08-21T02:20:35;9.93;;;7.60;;
64938;SDS011;51453;47.738;7.420;2023-08-21T02:23:01;9.75;;;7.20;;
64938;SDS011;51453;47.738;7.420;2023-08-21T02:25:26;10.65;;;7.38;;
64938;SDS011;51453;47.738;7.420;2023-08-21T02:27:52;8.18;;;6.95;;
64938;SDS011;51453;47.738;7.420;2023-08-21T02:30:17;9.00;;;7.53;;
64938;SDS011;51453;47.738;7.420;2023-08-21T02:32:43;9.60;;;6.80;;
64938;SDS011;51453;47.738;7.420;2023-08-21T02:35:09;9.52;;;7.38;;
64938;SDS011;51453;47.738;7.420;2023-08-21T02:37:35;10.70;;;7.35;;
64938;SDS011;51453;47.738;7.420;2023-08-21T02:40:04;9.27;;;7.13;;
64938;SDS011;51453;47.738;7.420;2023-08-21T02:42:33;8.75;;;7.13;;
64938;SDS011;51453;47.738;7.420;2023-08-21T02:44:58;8.75;;;7.22;;
64938;SDS011;51453;47.738;7.420;2023-08-21T02:47:24;9.45;;;7.25;;
64938;SDS011;51453;47.738;7.420;2023-08-21T02:49:50;9.77;;;7.68;;
64938;SDS011;51453;47.738;7.420;2023-08-21T02:52:17;12.80;;;7.93;;
64938;SDS011;51453;47.738;7.420;2023-08-21T02:54:42;8.85;;;7.47;;
64938;SDS011;51453;47.738;7.420;2023-08-21T02:57:08;10.32;;;7.10;;
64938;SDS011;51453;47.738;7.420;2023-08-21T02:59:34;11.27;;;7.45;;
64938;SDS011;51453;47.738;7.420;2023-08-21T03:02:00;9.43;;;7.25;;
64938;SDS011;51453;47.738;7.420;2023-08-21T03:04:25;9.25;;;7.30;;
64938;SDS011;51453;47.738;7.420;2023-08-21T03:06:51;8.85;;;7.20;;
64938;SDS011;51453;47.738;7.420;2023-08-21T03:09:16;10.48;;;7.22;;
64938;SDS011;51453;47.738;7.420;2023-08-21T03:11:42;9.40;;;7.50;;
64938;SDS011;51453;47.738;7.420;2023-08-21T03:14:08;8.85;;;7.30;;
64938;SDS011;51453;47.738;7.420;2023-08-21T03:16:33;14.15;;;8.15;;
64938;SDS011;51453;47.738;7.420;2023-08-21T03:18:59;8.43;;;7.35;;
64938;SDS011;51453;47.738;7.420;2023-08-21T03:21:26;8.82;;;7.57;;
64938;SDS011;51453;47.738;7.420;2023-08-21T03:23:56;8.43;;;7.55;;
64938;SDS011;51453;47.738;7.420;2023-08-21T03:26:24;8.38;;;7.50;;
64938;SDS011;51453;47.738;7.420;2023-08-21T03:28:49;8.82;;;7.22;;
64938;SDS011;51453;47.738;7.420;2023-08-21T03:31:15;9.52;;;7.82;;
64938;SDS011;51453;47.738;7.420;2023-08-21T03:33:41;9.85;;;8.18;;
64938;SDS011;51453;47.738;7.420;2023-08-21T03:36:07;11.02;;;7.63;;
64938;SDS011;51453;47.738;7.420;2023-08-21T03:38:32;11.63;;;8.55;;
64938;SDS011;51453;47.738;7.420;2023-08-21T03:40:59;12.60;;;8.05;;
64938;SDS011;51453;47.738;7.420;2023-08-21T03:43:24;10.48;;;8.18;;
64938;SDS011;51453;47.738;7.420;2023-08-21T03:45:50;12.32;;;7.93;;
64938;SDS011;51453;47.738;7.420;2023-08-21T03:48:16;13.05;;;8.23;;
64938;SDS011;51453;47.738;7.420;2023-08-21T03:50:42;10.27;;;8.15;;
64938;SDS011;51453;47.738;7.420;2023-08-21T03:53:07;11.65;;;7.65;;
64938;SDS011;51453;47.738;7.420;2023-08-21T03:55:33;10.70;;;7.43;;
64938;SDS011;51453;47.738;7.420;2023-08-21T03:57:59;9.40;;;7.65;;
64938;SDS011;51453;47.738;7.420;2023-08-21T04:00:25;11.73;;;7.53;;
64938;SDS011;51453;47.738;7.420;2023-08-21T04:02:50;10.70;;;7.68;;
64938;SDS011;51453;47.738;7.420;2023-08-21T04:05:16;8.63;;;7.65;;
64938;SDS011;51453;47.738;7.420;2023-08-21T04:07:41;12.15;;;7.28;;
64938;SDS011;51453;47.738;7.420;2023-08-21T04:10:07;11.00;;;8.10;;
64938;SDS011;51453;47.738;7.420;2023-08-21T04:12:33;10.38;;;7.38;;
64938;SDS011;51453;47.738;7.420;2023-08-21T04:14:58;10.95;;;7.78;;
64938;SDS011;51453;47.738;7.420;2023-08-21T04:17:24;10.57;;;7.82;;
64938;SDS011;51453;47.738;7.420;2023-08-21T04:19:50;13.13;;;8.13;;
64938;SDS011;51453;47.738;7.420;2023-08-21T04:22:16;9.30;;;7.50;;
64938;SDS011;51453;47.738;7.420;2023-08-21T04:24:42;10.60;;;7.72;;
64938;SDS011;51453;47.738;7.420;2023-08-21T04:27:08;10.93;;;7.75;;
64938;SDS011;51453;47.738;7.420;2023-08-21T04:29:35;10.65;;;8.10;;
64938;SDS011;51453;47.738;7.420;2023-08-21T04:32:00;11.10;;;8.10;;
64938;SDS011;51453;47.738;7.420;2023-08-21T04:34:26;11.32;;;7.97;;
64938;SDS011;51453;47.738;7.420;2023-08-21T04:36:52;12.15;;;7.85;;
64938;SDS011;51453;47.738;7.420;2023-08-21T04:39:18;9.00;;;7.80;;
64938;SDS011;51453;47.738;7.420;2023-08-21T04:41:43;12.85;;;8.65;;
64938;SDS011;51453;47.738;7.420;2023-08-21T04:44:09;10.38;;;7.97;;
64938;SDS011;51453;47.738;7.420;2023-08-21T04:46:35;11.43;;;7.78;;
64938;SDS011;51453;47.738;7.420;2023-08-21T04:49:00;17.88;;;7.90;;
64938;SDS011;51453;47.738;7.420;2023-08-21T04:51:26;10.70;;;7.75;;
64938;SDS011;51453;47.738;7.420;2023-08-21T04:53:51;9.93;;;7.68;;
64938;SDS011;51453;47.738;7.420;2023-08-21T04:56:17;11.38;;;8.10;;
64938;SDS011;51453;47.738;7.420;2023-08-21T04:58:43;10.75;;;8.07;;
64938;SDS011;51453;47.738;7.420;2023-08-21T05:01:08;10.50;;;7.65;;
64938;SDS011;51453;47.738;7.420;2023-08-21T05:03:34;9.38;;;8.00;;
64938;SDS011;51453;47.738;7.420;2023-08-21T05:06:00;8.73;;;7.80;;
64938;SDS011;51453;47.738;7.420;2023-08-21T05:08:25;17.50;;;8.43;;
64938;SDS011;51453;47.738;7.420;2023-08-21T05:10:55;11.25;;;8.15;;
64938;SDS011;51453;47.738;7.420;2023-08-21T05:13:24;9.88;;;8.45;;
64938;SDS011;51453;47.738;7.420;2023-08-21T05:18:22;12.35;;;9.40;;
64938;SDS011;51453;47.738;7.420;2023-08-21T05:20:49;11.57;;;9.75;;
64938;SDS011;51453;47.738;7.420;2023-08-21T05:23:15;12.98;;;9.50;;
64938;SDS011;51453;47.738;7.420;2023-08-21T05:25:45;11.00;;;9.23;;
64938;SDS011;51453;47.738;7.420;2023-08-21T05:28:12;11.18;;;9.18;;
64938;SDS011;51453;47.738;7.420;2023-08-21T05:30:38;10.95;;;9.23;;
64938;SDS011;51453;47.738;7.420;2023-08-21T05:33:04;11.20;;;9.13;;
64938;SDS011;51453;47.738;7.420;2023-08-21T05:35:33;10.65;;;9.50;;
64938;SDS011;51453;47.738;7.420;2023-08-21T05:38:01;9.18;;;8.27;;
64938;SDS011;51453;47.738;7.420;2023-08-21T05:40:27;10.05;;;8.50;;
64938;SDS011;51453;47.738;7.420;2023-08-21T05:42:53;11.35;;;8.10;;
64938;SDS011;51453;47.738;7.420;2023-08-21T05:45:18;13.50;;;8.98;;
64938;SDS011;51453;47.738;7.420;2023-08-21T05:47:44;11.98;;;9.20;;
64938;SDS011;51453;47.738;7.420;2023-08-21T05:50:09;10.75;;;8.85;;
64938;SDS011;51453;47.738;7.420;2023-08-21T05:52:35;11.85;;;8.75;;
64938;SDS011;51453;47.738;7.420;2023-08-21T05:55:01;10.82;;;8.23;;
64938;SDS011;51453;47.738;7.420;2023-08-21T05:57:26;13.82;;;8.73;;
64938;SDS011;51453;47.738;7.420;2023-08-21T05:59:52;10.90;;;8.55;;
64938;SDS011;51453;47.738;7.420;2023-08-21T06:02:18;10.50;;;8.52;;
64938;SDS011;51453;47.738;7.420;2023-08-21T06:04:43;10.68;;;7.97;;
64938;SDS011;51453;47.738;7.420;2023-08-21T06:07:09;10.25;;;8.27;;
64938;SDS011;51453;47.738;7.420;2023-08-21T06:09:35;9.43;;;8.07;;
64938;SDS011;51453;47.738;7.420;2023-08-21T06:12:01;9.90;;;8.82;;
64938;SDS011;51453;47.738;7.420;2023-08-21T06:14:28;13.05;;;9.10;;
64938;SDS011;51453;47.738;7.420;2023-08-21T06:16:57;11.60;;;8.82;;
64938;SDS011;51453;47.738;7.420;2023-08-21T06:19:27;13.05;;;8.80;;
64938;SDS011;51453;47.738;7.420;2023-08-21T06:21:54;11.52;;;8.30;;
64938;SDS011;51453;47.738;7.420;2023-08-21T06:24:20;10.07;;;8.32;;
64938;SDS011;51453;47.738;7.420;2023-08-21T06:26:46;14.05;;;8.43;;
64938;SDS011;51453;47.738;7.420;2023-08-21T06:29:11;9.77;;;7.95;;
64938;SDS011;51453;47.738;7.420;2023-08-21T06:31:37;12.98;;;8.88;;
64938;SDS011;51453;47.738;7.420;2023-08-21T06:34:03;8.95;;;7.88;;
64938;SDS011;51453;47.738;7.420;2023-08-21T06:36:28;13.73;;;8.10;;
64938;SDS011;51453;47.738;7.420;2023-08-21T06:38:55;10.90;;;8.93;;
64938;SDS011;51453;47.738;7.420;2023-08-21T06:41:20;11.93;;;8.15;;
64938;SDS011;51453;47.738;7.420;2023-08-21T06:43:46;9.90;;;8.18;;
64938;SDS011;51453;47.738;7.420;2023-08-21T06:46:12;14.30;;;8.40;;
64938;SDS011;51453;47.738;7.420;2023-08-21T06:48:39;11.45;;;8.50;;
64938;SDS011;51453;47.738;7.420;2023-08-21T06:51:06;12.43;;;8.05;;
64938;SDS011;51453;47.738;7.420;2023-08-21T06:53:32;15.20;;;8.23;;
64938;SDS011;51453;47.738;7.420;2023-08-21T06:55:57;11.07;;;7.57;;
64938;SDS011;51453;47.738;7.420;2023-08-21T06:58:23;17.48;;;7.95;;
64938;SDS011;51453;47.738;7.420;2023-08-21T07:00:48;9.98;;;7.05;;
64938;SDS011;51453;47.738;7.420;2023-08-21T07:03:14;15.77;;;7.50;;
64938;SDS011;51453;47.738;7.420;2023-08-21T07:05:40;10.93;;;7.47;;
64938;SDS011;51453;47.738;7.420;2023-08-21T07:08:06;11.57;;;7.22;;
64938;SDS011;51453;47.738;7.420;2023-08-21T07:10:38;10.68;;;6.95;;
64938;SDS011;51453;47.738;7.420;2023-08-21T07:13:03;9.48;;;7.10;;
64938;SDS011;51453;47.738;7.420;2023-08-21T07:15:29;8.63;;;6.32;;
64938;SDS011;51453;47.738;7.420;2023-08-21T07:17:55;9.05;;;5.80;;
64938;SDS011;51453;47.738;7.420;2023-08-21T07:20:21;7.22;;;5.32;;
64938;SDS011;51453;47.738;7.420;2023-08-21T07:22:47;8.75;;;5.97;;
64938;SDS011;51453;47.738;7.420;2023-08-21T07:25:13;9.10;;;5.60;;
64938;SDS011;51453;47.738;7.420;2023-08-21T07:27:38;9.52;;;5.18;;
64938;SDS011;51453;47.738;7.420;2023-08-21T07:30:05;6.80;;;5.13;;
64938;SDS011;51453;47.738;7.420;2023-08-21T07:32:31;9.43;;;5.10;;
64938;SDS011;51453;47.738;7.420;2023-08-21T07:34:57;9.55;;;5.35;;
64938;SDS011;51453;47.738;7.420;2023-08-21T07:37:23;8.77;;;4.95;;
64938;SDS011;51453;47.738;7.420;2023-08-21T07:39:48;8.98;;;5.88;;
64938;SDS011;51453;47.738;7.420;2023-08-21T07:42:14;7.72;;;5.13;;
64938;SDS011;51453;47.738;7.420;2023-08-21T07:44:40;5.45;;;4.95;;
64938;SDS011;51453;47.738;7.420;2023-08-21T07:47:05;9.07;;;5.25;;
64938;SDS011;51453;47.738;7.420;2023-08-21T07:49:32;9.73;;;5.50;;
64938;SDS011;51453;47.738;7.420;2023-08-21T07:51:58;6.00;;;5.38;;
64938;SDS011;51453;47.738;7.420;2023-08-21T07:54:23;7.95;;;5.45;;
64938;SDS011;51453;47.738;7.420;2023-08-21T07:56:49;6.47;;;5.20;;
64938;SDS011;51453;47.738;7.420;2023-08-21T07:59:15;7.35;;;5.25;;
64938;SDS011;51453;47.738;7.420;2023-08-21T08:01:41;7.20;;;5.40;;
64938;SDS011;51453;47.738;7.420;2023-08-21T08:04:07;7.05;;;5.20;;
64938;SDS011;51453;47.738;7.420;2023-08-21T08:06:33;7.00;;;4.82;;
64938;SDS011;51453;47.738;7.420;2023-08-21T08:08:59;9.40;;;5.53;;
64938;SDS011;51453;47.738;7.420;2023-08-21T08:11:25;6.22;;;5.30;;
64938;SDS011;51453;47.738;7.420;2023-08-21T08:13:51;6.65;;;5.63;;
64938;SDS011;51453;47.738;7.420;2023-08-21T08:16:17;9.80;;;5.45;;
64938;SDS011;51453;47.738;7.420;2023-08-21T08:18:42;6.45;;;5.18;;
64938;SDS011;51453;47.738;7.420;2023-08-21T08:21:08;7.82;;;5.38;;
64938;SDS011;51453;47.738;7.420;2023-08-21T08:23:35;7.60;;;5.85;;
64938;SDS011;51453;47.738;7.420;2023-08-21T08:26:01;8.50;;;5.78;;
64938;SDS011;51453;47.738;7.420;2023-08-21T08:28:27;11.32;;;5.75;;
64938;SDS011;51453;47.738;7.420;2023-08-21T08:30:53;8.23;;;6.35;;
64938;SDS011;51453;47.738;7.420;2023-08-21T08:33:19;7.47;;;5.22;;
64938;SDS011;51453;47.738;7.420;2023-08-21T08:35:45;10.32;;;5.00;;
64938;SDS011;51453;47.738;7.420;2023-08-21T08:38:11;8.20;;;5.53;;
64938;SDS011;51453;47.738;7.420;2023-08-21T08:40:37;6.38;;;5.20;;
64938;SDS011;51453;47.738;7.420;2023-08-21T08:43:14;6.57;;;5.25;;
64938;SDS011;51453;47.738;7.420;2023-08-21T08:45:40;12.90;;;5.38;;
64938;SDS011;51453;47.738;7.420;2023-08-21T08:48:06;9.63;;;4.80;;
64938;SDS011;51453;47.738;7.420;2023-08-21T08:50:33;8.63;;;5.57;;
64938;SDS011;51453;47.738;7.420;2023-08-21T08:53:00;9.32;;;5.90;;
64938;SDS011;51453;47.738;7.420;2023-08-21T08:55:26;7.13;;;5.38;;
64938;SDS011;51453;47.738;7.420;2023-08-21T08:57:52;7.63;;;5.10;;
64938;SDS011;51453;47.738;7.420;2023-08-21T09:00:18;8.45;;;5.60;;
64938;SDS011;51453;47.738;7.420;2023-08-21T09:02:45;7.45;;;4.80;;
64938;SDS011;51453;47.738;7.420;2023-08-21T09:05:11;6.65;;;5.10;;
64938;SDS011;51453;47.738;7.420;2023-08-21T09:07:37;10.65;;;5.93;;
64938;SDS011;51453;47.738;7.420;2023-08-21T09:10:04;7.55;;;5.45;;
64938;SDS011;51453;47.738;7.420;2023-08-21T09:12:37;9.90;;;5.30;;
64938;SDS011;51453;47.738;7.420;2023-08-21T09:15:06;7.55;;;5.50;;
64938;SDS011;51453;47.738;7.420;2023-08-21T09:17:32;7.82;;;5.07;;
64938;SDS011;51453;47.738;7.420;2023-08-21T09:20:03;6.40;;;5.18;;
64938;SDS011;51453;47.738;7.420;2023-08-21T09:22:32;7.53;;;4.90;;
64938;SDS011;51453;47.738;7.420;2023-08-21T09:25:07;6.47;;;5.05;;
64938;SDS011;51453;47.738;7.420;2023-08-21T09:27:37;7.75;;;5.28;;
64938;SDS011;51453;47.738;7.420;2023-08-21T09:30:04;6.63;;;4.88;;
64938;SDS011;51453;47.738;7.420;2023-08-21T09:32:30;7.25;;;4.90;;
64938;SDS011;51453;47.738;7.420;2023-08-21T09:35:16;8.32;;;5.30;;
64938;SDS011;51453;47.738;7.420;2023-08-21T09:37:42;11.27;;;5.25;;
64938;SDS011;51453;47.738;7.420;2023-08-21T09:40:12;13.15;;;5.47;;
64938;SDS011;51453;47.738;7.420;2023-08-21T09:42:39;8.15;;;4.78;;
64938;SDS011;51453;47.738;7.420;2023-08-21T09:45:04;5.22;;;4.78;;
64938;SDS011;51453;47.738;7.420;2023-08-21T09:47:31;8.13;;;5.20;;
64938;SDS011;51453;47.738;7.420;2023-08-21T09:49:58;8.18;;;4.70;;
64938;SDS011;51453;47.738;7.420;2023-08-21T09:52:24;8.85;;;5.22;;
64938;SDS011;51453;47.738;7.420;2023-08-21T09:54:53;10.02;;;5.35;;
64938;SDS011;51453;47.738;7.420;2023-08-21T09:57:20;24.52;;;6.20;;
64938;SDS011;51453;47.738;7.420;2023-08-21T09:59:48;7.68;;;4.90;;
64938;SDS011;51453;47.738;7.420;2023-08-21T10:02:17;9.02;;;5.07;;
64938;SDS011;51453;47.738;7.420;2023-08-21T10:04:43;5.50;;;4.97;;
64938;SDS011;51453;47.738;7.420;2023-08-21T10:07:10;7.13;;;5.13;;
64938;SDS011;51453;47.738;7.420;2023-08-21T10:09:39;7.35;;;5.47;;
64938;SDS011;51453;47.738;7.420;2023-08-21T10:12:08;6.57;;;4.95;;
64938;SDS011;51453;47.738;7.420;2023-08-21T10:14:34;12.05;;;5.40;;
64938;SDS011;51453;47.738;7.420;2023-08-21T10:17:01;6.18;;;4.90;;
64938;SDS011;51453;47.738;7.420;2023-08-21T10:19:31;8.90;;;5.10;;
64938;SDS011;51453;47.738;7.420;2023-08-21T10:21:57;7.90;;;5.00;;
64938;SDS011;51453;47.738;7.420;2023-08-21T10:24:27;6.03;;;4.75;;
64938;SDS011;51453;47.738;7.420;2023-08-21T10:26:53;10.93;;;4.80;;
64938;SDS011;51453;47.738;7.420;2023-08-21T10:29:22;13.23;;;5.82;;
64938;SDS011;51453;47.738;7.420;2023-08-21T10:31:48;8.20;;;4.95;;
64938;SDS011;51453;47.738;7.420;2023-08-21T10:34:25;8.48;;;5.35;;
64938;SDS011;51453;47.738;7.420;2023-08-21T10:39:26;5.50;;;5.00;;
64938;SDS011;51453;47.738;7.420;2023-08-21T10:47:16;8.02;;;5.10;;
64938;SDS011;51453;47.738;7.420;2023-08-21T10:49:54;8.85;;;5.13;;
64938;SDS011;51453;47.738;7.420;2023-08-21T10:52:25;5.25;;;4.72;;
64938;SDS011;51453;47.738;7.420;2023-08-21T10:54:52;10.82;;;5.65;;
64938;SDS011;51453;47.738;7.420;2023-08-21T10:57:25;11.63;;;5.45;;
64938;SDS011;51453;47.738;7.420;2023-08-21T11:02:25;19.77;;;5.80;;
64938;SDS011;51453;47.738;7.420;2023-08-21T11:04:54;11.07;;;6.00;;
64938;SDS011;51453;47.738;7.420;2023-08-21T11:07:20;7.53;;;5.00;;
64938;SDS011;51453;47.738;7.420;2023-08-21T11:09:46;14.57;;;5.35;;
64938;SDS011;51453;47.738;7.420;2023-08-21T11:12:14;14.13;;;5.50;;
64938;SDS011;51453;47.738;7.420;2023-08-21T11:14:41;10.20;;;5.30;;
64938;SDS011;51453;47.738;7.420;2023-08-21T11:17:07;9.02;;;4.70;;
64938;SDS011;51453;47.738;7.420;2023-08-21T11:19:34;47.05;;;7.50;;
64938;SDS011;51453;47.738;7.420;2023-08-21T11:22:01;7.13;;;4.80;;
64938;SDS011;51453;47.738;7.420;2023-08-21T11:27:02;6.70;;;5.20;;
64938;SDS011;51453;47.738;7.420;2023-08-21T11:29:29;5.75;;;5.00;;
64938;SDS011;51453;47.738;7.420;2023-08-21T11:32:02;7.40;;;4.97;;
64938;SDS011;51453;47.738;7.420;2023-08-21T11:34:28;7.70;;;4.85;;
64938;SDS011;51453;47.738;7.420;2023-08-21T11:36:57;8.10;;;4.75;;
64938;SDS011;51453;47.738;7.420;2023-08-21T11:39:22;8.13;;;5.15;;
64938;SDS011;51453;47.738;7.420;2023-08-21T11:41:55;6.82;;;5.22;;
64938;SDS011;51453;47.738;7.420;2023-08-21T11:44:21;7.95;;;5.07;;
64938;SDS011;51453;47.738;7.420;2023-08-21T11:46:47;12.00;;;5.22;;
64938;SDS011;51453;47.738;7.420;2023-08-21T11:49:15;7.22;;;5.18;;
64938;SDS011;51453;47.738;7.420;2023-08-21T11:51:43;29.60;;;6.72;;
64938;SDS011;51453;47.738;7.420;2023-08-21T11:54:11;8.30;;;4.88;;
64938;SDS011;51453;47.738;7.420;2023-08-21T11:56:36;12.75;;;5.22;;
64938;SDS011;51453;47.738;7.420;2023-08-21T11:59:04;12.35;;;5.10;;
64938;SDS011;51453;47.738;7.420;2023-08-21T12:01:32;8.88;;;4.95;;
64938;SDS011;51453;47.738;7.420;2023-08-21T12:04:05;7.15;;;4.82;;
64938;SDS011;51453;47.738;7.420;2023-08-21T12:06:43;15.63;;;5.95;;
64938;SDS011;51453;47.738;7.420;2023-08-21T12:09:09;5.55;;;4.65;;
64938;SDS011;51453;47.738;7.420;2023-08-21T12:11:35;10.77;;;4.95;;
64938;SDS011;51453;47.738;7.420;2023-08-21T12:14:03;12.48;;;5.63;;
64938;SDS011;51453;47.738;7.420;2023-08-21T12:16:29;7.10;;;5.28;;
64938;SDS011;51453;47.738;7.420;2023-08-21T12:18:55;6.88;;;5.07;;
64938;SDS011;51453;47.738;7.420;2023-08-21T12:21:22;8.60;;;4.60;;
64938;SDS011;51453;47.738;7.420;2023-08-21T12:23:48;7.15;;;4.90;;
64938;SDS011;51453;47.738;7.420;2023-08-21T12:26:14;9.75;;;5.05;;
64938;SDS011;51453;47.738;7.420;2023-08-21T12:28:46;7.93;;;4.82;;
64938;SDS011;51453;47.738;7.420;2023-08-21T12:31:13;7.80;;;4.88;;
64938;SDS011;51453;47.738;7.420;2023-08-21T12:33:39;6.82;;;4.97;;
64938;SDS011;51453;47.738;7.420;2023-08-21T12:36:04;7.63;;;4.47;;
64938;SDS011;51453;47.738;7.420;2023-08-21T12:38:30;6.65;;;4.45;;
64938;SDS011;51453;47.738;7.420;2023-08-21T12:40:56;8.45;;;4.50;;
64938;SDS011;51453;47.738;7.420;2023-08-21T12:43:22;9.05;;;4.30;;
64938;SDS011;51453;47.738;7.420;2023-08-21T12:45:47;14.15;;;4.75;;
64938;SDS011;51453;47.738;7.420;2023-08-21T12:48:13;8.07;;;4.38;;
64938;SDS011;51453;47.738;7.420;2023-08-21T12:50:39;6.72;;;4.50;;
64938;SDS011;51453;47.738;7.420;2023-08-21T12:53:05;8.27;;;4.90;;
64938;SDS011;51453;47.738;7.420;2023-08-21T12:55:31;8.52;;;4.75;;
64938;SDS011;51453;47.738;7.420;2023-08-21T12:57:56;9.00;;;4.18;;
64938;SDS011;51453;47.738;7.420;2023-08-21T13:00:22;8.68;;;4.68;;
64938;SDS011;51453;47.738;7.420;2023-08-21T13:02:48;5.18;;;4.40;;
64938;SDS011;51453;47.738;7.420;2023-08-21T13:05:13;13.65;;;5.05;;
64938;SDS011;51453;47.738;7.420;2023-08-21T13:07:40;15.52;;;5.43;;
64938;SDS011;51453;47.738;7.420;2023-08-21T13:10:06;6.32;;;4.57;;
64938;SDS011;51453;47.738;7.420;2023-08-21T13:12:32;7.47;;;4.82;;
64938;SDS011;51453;47.738;7.420;2023-08-21T13:14:58;7.82;;;4.78;;
64938;SDS011;51453;47.738;7.420;2023-08-21T13:17:24;6.82;;;4.65;;
64938;SDS011;51453;47.738;7.420;2023-08-21T13:19:49;6.78;;;4.55;;
64938;SDS011;51453;47.738;7.420;2023-08-21T13:22:18;10.27;;;4.22;;
64938;SDS011;51453;47.738;7.420;2023-08-21T13:24:43;11.30;;;3.90;;
64938;SDS011;51453;47.738;7.420;2023-08-21T13:27:09;9.43;;;4.32;;
64938;SDS011;51453;47.738;7.420;2023-08-21T13:29:35;5.82;;;4.00;;
64938;SDS011;51453;47.738;7.420;2023-08-21T13:32:01;7.88;;;4.03;;
64938;SDS011;51453;47.738;7.420;2023-08-21T13:34:27;5.78;;;3.90;;
64938;SDS011;51453;47.738;7.420;2023-08-21T13:36:53;5.53;;;3.78;;
64938;SDS011;51453;47.738;7.420;2023-08-21T13:39:18;7.25;;;3.80;;
64938;SDS011;51453;47.738;7.420;2023-08-21T13:41:44;7.47;;;3.88;;
64938;SDS011;51453;47.738;7.420;2023-08-21T13:44:10;8.30;;;4.30;;
64938;SDS011;51453;47.738;7.420;2023-08-21T13:46:36;8.07;;;4.13;;
64938;SDS011;51453;47.738;7.420;2023-08-21T13:49:01;7.40;;;4.13;;
64938;SDS011;51453;47.738;7.420;2023-08-21T13:51:27;9.13;;;4.13;;
64938;SDS011;51453;47.738;7.420;2023-08-21T13:53:53;8.02;;;4.28;;
64938;SDS011;51453;47.738;7.420;2023-08-21T13:56:18;7.45;;;3.70;;
64938;SDS011;51453;47.738;7.420;2023-08-21T13:58:44;6.47;;;4.03;;
64938;SDS011;51453;47.738;7.420;2023-08-21T14:01:10;7.22;;;3.45;;
64938;SDS011;51453;47.738;7.420;2023-08-21T14:03:36;6.60;;;3.83;;
64938;SDS011;51453;47.738;7.420;2023-08-21T14:06:02;4.65;;;3.13;;
64938;SDS011;51453;47.738;7.420;2023-08-21T14:08:28;6.35;;;3.80;;
64938;SDS011;51453;47.738;7.420;2023-08-21T14:10:54;8.45;;;4.22;;
64938;SDS011;51453;47.738;7.420;2023-08-21T14:13:19;7.50;;;3.90;;
64938;SDS011;51453;47.738;7.420;2023-08-21T14:15:45;5.72;;;3.42;;
64938;SDS011;51453;47.738;7.420;2023-08-21T14:18:11;6.32;;;3.20;;
64938;SDS011;51453;47.738;7.420;2023-08-21T14:20:36;5.22;;;3.45;;
64938;SDS011;51453;47.738;7.420;2023-08-21T14:23:03;6.75;;;3.33;;
64938;SDS011;51453;47.738;7.420;2023-08-21T14:25:29;12.70;;;4.72;;
64938;SDS011;51453;47.738;7.420;2023-08-21T14:27:54;7.93;;;3.78;;
64938;SDS011;51453;47.738;7.420;2023-08-21T14:30:20;3.53;;;2.95;;
64938;SDS011;51453;47.738;7.420;2023-08-21T14:32:46;6.80;;;3.45;;
64938;SDS011;51453;47.738;7.420;2023-08-21T14:35:11;10.75;;;3.42;;
64938;SDS011;51453;47.738;7.420;2023-08-21T14:37:37;4.80;;;3.30;;
64938;SDS011;51453;47.738;7.420;2023-08-21T14:40:04;4.95;;;3.30;;
64938;SDS011;51453;47.738;7.420;2023-08-21T14:42:34;6.97;;;3.60;;
64938;SDS011;51453;47.738;7.420;2023-08-21T14:44:59;4.85;;;2.95;;
64938;SDS011;51453;47.738;7.420;2023-08-21T14:47:25;7.13;;;3.15;;
64938;SDS011;51453;47.738;7.420;2023-08-21T14:49:50;4.10;;;3.08;;
64938;SDS011;51453;47.738;7.420;2023-08-21T14:52:16;8.50;;;3.20;;
64938;SDS011;51453;47.738;7.420;2023-08-21T14:54:42;7.75;;;3.40;;
64938;SDS011;51453;47.738;7.420;2023-08-21T14:57:08;4.47;;;3.17;;
64938;SDS011;51453;47.738;7.420;2023-08-21T14:59:33;4.45;;;2.60;;
64938;SDS011;51453;47.738;7.420;2023-08-21T15:01:59;9.90;;;2.78;;